sensor_id;sensor_type;location;lat;lon;timestamp;temperature;humidity
5086;DHT22;4715;51.660;7.082;2023-04-03T00:01:38;4.50;99.90
5086;DHT22;4715;51.660;7.082;2023-04-03T00:04:01;4.40;99.90
5086;DHT22;4715;51.660;7.082;2023-04-03T00:06:23;4.40;99.90
5086;DHT22;4715;51.660;7.082;2023-04-03T00:08:46;4.40;99.90
5086;DHT22;4715;51.660;7.082;2023-04-03T00:11:09;4.40;99.90
5086;DHT22;4715;51.660;7.082;2023-04-03T00:13:32;4.40;99.90
5086;DHT22;4715;51.660;7.082;2023-04-03T00:15:54;4.40;99.90
5086;DHT22;4715;51.660;7.082;2023-04-03T00:18:16;4.40;99.90
5086;DHT22;4715;51.660;7.082;2023-04-03T00:20:38;4.40;99.90
5086;DHT22;4715;51.660;7.082;2023-04-03T00:23:01;4.30;99.90
5086;DHT22;4715;51.660;7.082;2023-04-03T00:25:24;4.30;99.90
5086;DHT22;4715;51.660;7.082;2023-04-03T00:27:46;4.30;99.90
5086;DHT22;4715;51.660;7.082;2023-04-03T00:30:09;4.30;99.90
5086;DHT22;4715;51.660;7.082;2023-04-03T00:32:33;4.30;99.90
5086;DHT22;4715;51.660;7.082;2023-04-03T00:34:55;4.30;99.90
5086;DHT22;4715;51.660;7.082;2023-04-03T00:37:17;4.30;99.90
5086;DHT22;4715;51.660;7.082;2023-04-03T00:39:41;4.20;99.90
5086;DHT22;4715;51.660;7.082;2023-04-03T00:42:04;4.20;99.90
5086;DHT22;4715;51.660;7.082;2023-04-03T00:47:22;4.30;99.90
5086;DHT22;4715;51.660;7.082;2023-04-03T00:49:44;4.20;99.90
5086;DHT22;4715;51.660;7.082;2023-04-03T00:52:10;4.20;99.90
5086;DHT22;4715;51.660;7.082;2023-04-03T00:54:35;4.20;99.90
5086;DHT22;4715;51.660;7.082;2023-04-03T00:56:58;4.20;99.90
5086;DHT22;4715;51.660;7.082;2023-04-03T00:59:24;4.20;99.90
5086;DHT22;4715;51.660;7.082;2023-04-03T01:01:47;4.20;99.90
5086;DHT22;4715;51.660;7.082;2023-04-03T01:04:27;4.30;99.90
5086;DHT22;4715;51.660;7.082;2023-04-03T01:06:49;4.30;99.90
5086;DHT22;4715;51.660;7.082;2023-04-03T01:09:11;4.30;99.90
5086;DHT22;4715;51.660;7.082;2023-04-03T01:11:33;4.30;99.90
5086;DHT22;4715;51.660;7.082;2023-04-03T01:13:55;4.30;99.90
5086;DHT22;4715;51.660;7.082;2023-04-03T01:16:18;4.30;99.90
5086;DHT22;4715;51.660;7.082;2023-04-03T01:18:41;4.30;99.90
5086;DHT22;4715;51.660;7.082;2023-04-03T01:24:20;4.30;99.90
5086;DHT22;4715;51.660;7.082;2023-04-03T01:26:43;4.30;99.90
5086;DHT22;4715;51.660;7.082;2023-04-03T01:29:06;4.20;99.90
5086;DHT22;4715;51.660;7.082;2023-04-03T01:31:40;4.30;99.90
5086;DHT22;4715;51.660;7.082;2023-04-03T01:34:02;4.30;99.90
5086;DHT22;4715;51.660;7.082;2023-04-03T01:36:26;4.30;99.90
5086;DHT22;4715;51.660;7.082;2023-04-03T01:38:49;4.30;99.90
5086;DHT22;4715;51.660;7.082;2023-04-03T01:41:10;4.30;99.90
5086;DHT22;4715;51.660;7.082;2023-04-03T01:43:32;4.30;99.90
5086;DHT22;4715;51.660;7.082;2023-04-03T01:45:54;4.30;99.90
5086;DHT22;4715;51.660;7.082;2023-04-03T01:48:17;4.30;99.90
5086;DHT22;4715;51.660;7.082;2023-04-03T01:50:39;4.20;99.90
5086;DHT22;4715;51.660;7.082;2023-04-03T01:53:01;4.20;99.90
5086;DHT22;4715;51.660;7.082;2023-04-03T01:55:23;4.20;99.90
5086;DHT22;4715;51.660;7.082;2023-04-03T01:57:44;4.10;99.90
5086;DHT22;4715;51.660;7.082;2023-04-03T02:00:07;4.20;99.90
5086;DHT22;4715;51.660;7.082;2023-04-03T02:02:29;4.10;99.90
5086;DHT22;4715;51.660;7.082;2023-04-03T02:04:52;4.10;99.90
5086;DHT22;4715;51.660;7.082;2023-04-03T02:07:15;4.00;99.90
5086;DHT22;4715;51.660;7.082;2023-04-03T02:09:37;4.00;99.90
5086;DHT22;4715;51.660;7.082;2023-04-03T02:11:59;4.00;99.90
5086;DHT22;4715;51.660;7.082;2023-04-03T02:14:21;4.00;99.90
5086;DHT22;4715;51.660;7.082;2023-04-03T02:16:44;4.00;99.90
5086;DHT22;4715;51.660;7.082;2023-04-03T02:19:06;4.00;99.90
5086;DHT22;4715;51.660;7.082;2023-04-03T02:21:29;4.00;99.90
5086;DHT22;4715;51.660;7.082;2023-04-03T02:23:50;3.90;99.90
5086;DHT22;4715;51.660;7.082;2023-04-03T02:26:14;3.90;99.90
5086;DHT22;4715;51.660;7.082;2023-04-03T02:28:37;3.90;99.90
5086;DHT22;4715;51.660;7.082;2023-04-03T02:30:59;3.80;99.90
5086;DHT22;4715;51.660;7.082;2023-04-03T02:33:21;3.80;99.90
5086;DHT22;4715;51.660;7.082;2023-04-03T02:35:43;3.80;99.90
5086;DHT22;4715;51.660;7.082;2023-04-03T02:38:08;3.80;99.90
5086;DHT22;4715;51.660;7.082;2023-04-03T02:40:29;3.70;99.90
5086;DHT22;4715;51.660;7.082;2023-04-03T02:42:51;3.70;99.90
5086;DHT22;4715;51.660;7.082;2023-04-03T02:45:13;3.70;99.90
5086;DHT22;4715;51.660;7.082;2023-04-03T02:47:35;3.60;99.90
5086;DHT22;4715;51.660;7.082;2023-04-03T02:49:57;3.60;99.90
5086;DHT22;4715;51.660;7.082;2023-04-03T02:52:19;3.60;99.90
5086;DHT22;4715;51.660;7.082;2023-04-03T02:54:42;3.60;99.90
5086;DHT22;4715;51.660;7.082;2023-04-03T02:57:04;3.60;99.90
5086;DHT22;4715;51.660;7.082;2023-04-03T02:59:26;3.60;99.90
5086;DHT22;4715;51.660;7.082;2023-04-03T03:01:47;3.50;99.90
5086;DHT22;4715;51.660;7.082;2023-04-03T03:04:09;3.50;99.90
5086;DHT22;4715;51.660;7.082;2023-04-03T03:06:31;3.50;99.90
5086;DHT22;4715;51.660;7.082;2023-04-03T03:08:53;3.40;99.90
5086;DHT22;4715;51.660;7.082;2023-04-03T03:11:16;3.40;99.90
5086;DHT22;4715;51.660;7.082;2023-04-03T03:13:38;3.40;99.90
5086;DHT22;4715;51.660;7.082;2023-04-03T03:16:00;3.30;99.90
5086;DHT22;4715;51.660;7.082;2023-04-03T03:18:22;3.30;99.90
5086;DHT22;4715;51.660;7.082;2023-04-03T03:20:45;3.30;99.90
5086;DHT22;4715;51.660;7.082;2023-04-03T03:23:07;3.30;99.90
5086;DHT22;4715;51.660;7.082;2023-04-03T03:25:28;3.30;99.90
5086;DHT22;4715;51.660;7.082;2023-04-03T03:27:52;3.20;99.90
5086;DHT22;4715;51.660;7.082;2023-04-03T03:30:13;3.20;99.90
5086;DHT22;4715;51.660;7.082;2023-04-03T03:32:35;3.20;99.90
5086;DHT22;4715;51.660;7.082;2023-04-03T03:34:57;3.20;99.90
5086;DHT22;4715;51.660;7.082;2023-04-03T03:37:19;3.20;99.90
5086;DHT22;4715;51.660;7.082;2023-04-03T03:39:41;3.10;99.90
5086;DHT22;4715;51.660;7.082;2023-04-03T03:42:02;3.10;99.90
5086;DHT22;4715;51.660;7.082;2023-04-03T03:44:26;3.10;99.90
5086;DHT22;4715;51.660;7.082;2023-04-03T03:46:49;3.10;99.90
5086;DHT22;4715;51.660;7.082;2023-04-03T03:49:11;3.10;99.90
5086;DHT22;4715;51.660;7.082;2023-04-03T03:51:33;3.10;99.90
5086;DHT22;4715;51.660;7.082;2023-04-03T03:53:54;3.00;99.90
5086;DHT22;4715;51.660;7.082;2023-04-03T03:56:16;3.00;99.90
5086;DHT22;4715;51.660;7.082;2023-04-03T03:58:38;3.00;99.90
5086;DHT22;4715;51.660;7.082;2023-04-03T04:01:02;3.00;99.90
5086;DHT22;4715;51.660;7.082;2023-04-03T04:03:24;3.00;99.90
5086;DHT22;4715;51.660;7.082;2023-04-03T04:05:45;2.90;99.90
5086;DHT22;4715;51.660;7.082;2023-04-03T04:08:07;2.90;99.90
5086;DHT22;4715;51.660;7.082;2023-04-03T04:10:29;2.90;99.90
5086;DHT22;4715;51.660;7.082;2023-04-03T04:12:51;2.80;99.90
5086;DHT22;4715;51.660;7.082;2023-04-03T04:15:13;2.80;99.90
5086;DHT22;4715;51.660;7.082;2023-04-03T04:17:36;2.80;99.90
5086;DHT22;4715;51.660;7.082;2023-04-03T04:19:58;2.80;99.90
5086;DHT22;4715;51.660;7.082;2023-04-03T04:22:19;2.80;99.90
5086;DHT22;4715;51.660;7.082;2023-04-03T04:24:41;2.70;99.90
5086;DHT22;4715;51.660;7.082;2023-04-03T04:27:03;2.70;99.90
5086;DHT22;4715;51.660;7.082;2023-04-03T04:29:25;2.70;99.90
5086;DHT22;4715;51.660;7.082;2023-04-03T04:31:47;2.60;99.90
5086;DHT22;4715;51.660;7.082;2023-04-03T04:34:10;2.60;99.90
5086;DHT22;4715;51.660;7.082;2023-04-03T04:36:33;2.60;99.90
5086;DHT22;4715;51.660;7.082;2023-04-03T04:38:55;2.60;99.90
5086;DHT22;4715;51.660;7.082;2023-04-03T04:41:17;2.60;99.90
5086;DHT22;4715;51.660;7.082;2023-04-03T04:43:41;2.60;99.90
5086;DHT22;4715;51.660;7.082;2023-04-03T04:46:04;2.50;99.90
5086;DHT22;4715;51.660;7.082;2023-04-03T04:48:26;2.50;99.90
5086;DHT22;4715;51.660;7.082;2023-04-03T04:50:50;2.50;99.90
5086;DHT22;4715;51.660;7.082;2023-04-03T04:53:12;2.60;99.90
5086;DHT22;4715;51.660;7.082;2023-04-03T04:55:33;2.50;99.90
5086;DHT22;4715;51.660;7.082;2023-04-03T04:57:55;2.50;99.90
5086;DHT22;4715;51.660;7.082;2023-04-03T05:00:18;2.50;99.90
5086;DHT22;4715;51.660;7.082;2023-04-03T05:02:40;2.50;99.90
5086;DHT22;4715;51.660;7.082;2023-04-03T05:05:01;2.50;99.90
5086;DHT22;4715;51.660;7.082;2023-04-03T05:07:25;2.50;99.90
5086;DHT22;4715;51.660;7.082;2023-04-03T05:09:46;2.50;99.90
5086;DHT22;4715;51.660;7.082;2023-04-03T05:12:08;2.50;99.90
5086;DHT22;4715;51.660;7.082;2023-04-03T05:14:30;2.50;99.90
5086;DHT22;4715;51.660;7.082;2023-04-03T05:16:52;2.50;99.90
5086;DHT22;4715;51.660;7.082;2023-04-03T05:19:14;2.50;99.90
5086;DHT22;4715;51.660;7.082;2023-04-03T05:21:36;2.50;99.90
5086;DHT22;4715;51.660;7.082;2023-04-03T05:23:59;2.50;99.90
5086;DHT22;4715;51.660;7.082;2023-04-03T05:26:23;2.50;99.90
5086;DHT22;4715;51.660;7.082;2023-04-03T05:28:45;2.50;99.90
5086;DHT22;4715;51.660;7.082;2023-04-03T05:31:07;2.60;99.90
5086;DHT22;4715;51.660;7.082;2023-04-03T05:33:29;2.60;99.90
5086;DHT22;4715;51.660;7.082;2023-04-03T05:35:51;2.60;99.90
5086;DHT22;4715;51.660;7.082;2023-04-03T05:38:13;2.60;99.90
5086;DHT22;4715;51.660;7.082;2023-04-03T05:40:36;2.60;99.90
5086;DHT22;4715;51.660;7.082;2023-04-03T05:42:59;2.60;99.90
5086;DHT22;4715;51.660;7.082;2023-04-03T05:45:20;2.60;99.90
5086;DHT22;4715;51.660;7.082;2023-04-03T05:47:42;2.60;99.90
5086;DHT22;4715;51.660;7.082;2023-04-03T05:50:05;2.60;99.90
5086;DHT22;4715;51.660;7.082;2023-04-03T05:52:28;2.60;99.90
5086;DHT22;4715;51.660;7.082;2023-04-03T05:54:51;2.60;99.90
5086;DHT22;4715;51.660;7.082;2023-04-03T05:57:14;2.60;99.90
5086;DHT22;4715;51.660;7.082;2023-04-03T05:59:36;2.60;99.90
5086;DHT22;4715;51.660;7.082;2023-04-03T06:01:58;2.60;99.90
5086;DHT22;4715;51.660;7.082;2023-04-03T06:04:21;2.70;99.90
5086;DHT22;4715;51.660;7.082;2023-04-03T06:06:45;2.70;99.90
5086;DHT22;4715;51.660;7.082;2023-04-03T06:09:06;2.80;99.90
5086;DHT22;4715;51.660;7.082;2023-04-03T06:11:28;2.90;99.90
5086;DHT22;4715;51.660;7.082;2023-04-03T06:13:52;2.90;99.90
5086;DHT22;4715;51.660;7.082;2023-04-03T06:16:14;3.00;99.90
5086;DHT22;4715;51.660;7.082;2023-04-03T06:18:36;3.00;99.90
5086;DHT22;4715;51.660;7.082;2023-04-03T06:20:58;3.00;99.90
5086;DHT22;4715;51.660;7.082;2023-04-03T06:23:21;3.10;99.90
5086;DHT22;4715;51.660;7.082;2023-04-03T06:25:43;3.10;99.90
5086;DHT22;4715;51.660;7.082;2023-04-03T06:28:05;3.20;99.90
5086;DHT22;4715;51.660;7.082;2023-04-03T06:30:31;3.30;99.90
5086;DHT22;4715;51.660;7.082;2023-04-03T06:32:52;3.40;99.90
5086;DHT22;4715;51.660;7.082;2023-04-03T06:35:14;3.50;99.90
5086;DHT22;4715;51.660;7.082;2023-04-03T06:37:36;3.60;99.90
5086;DHT22;4715;51.660;7.082;2023-04-03T06:39:58;3.60;99.90
5086;DHT22;4715;51.660;7.082;2023-04-03T06:42:20;3.70;99.90
5086;DHT22;4715;51.660;7.082;2023-04-03T06:44:42;3.70;99.90
5086;DHT22;4715;51.660;7.082;2023-04-03T06:47:06;3.80;99.90
5086;DHT22;4715;51.660;7.082;2023-04-03T06:49:29;3.90;99.90
5086;DHT22;4715;51.660;7.082;2023-04-03T06:51:51;3.90;99.90
5086;DHT22;4715;51.660;7.082;2023-04-03T06:54:13;4.00;99.90
5086;DHT22;4715;51.660;7.082;2023-04-03T06:56:35;4.10;99.90
5086;DHT22;4715;51.660;7.082;2023-04-03T06:58:57;4.10;99.90
5086;DHT22;4715;51.660;7.082;2023-04-03T07:01:20;4.20;99.90
5086;DHT22;4715;51.660;7.082;2023-04-03T07:03:45;4.20;99.90
5086;DHT22;4715;51.660;7.082;2023-04-03T07:06:10;4.30;99.90
5086;DHT22;4715;51.660;7.082;2023-04-03T07:08:33;4.30;99.90
5086;DHT22;4715;51.660;7.082;2023-04-03T07:10:58;4.40;99.90
5086;DHT22;4715;51.660;7.082;2023-04-03T07:13:20;4.40;99.90
5086;DHT22;4715;51.660;7.082;2023-04-03T07:15:42;4.40;99.90
5086;DHT22;4715;51.660;7.082;2023-04-03T07:18:05;4.50;99.90
5086;DHT22;4715;51.660;7.082;2023-04-03T07:20:28;4.60;99.90
5086;DHT22;4715;51.660;7.082;2023-04-03T07:22:53;4.70;99.90
5086;DHT22;4715;51.660;7.082;2023-04-03T07:25:15;4.80;99.90
5086;DHT22;4715;51.660;7.082;2023-04-03T07:27:41;4.80;99.90
5086;DHT22;4715;51.660;7.082;2023-04-03T07:30:09;4.90;99.90
5086;DHT22;4715;51.660;7.082;2023-04-03T07:32:35;5.00;99.90
5086;DHT22;4715;51.660;7.082;2023-04-03T07:34:58;5.10;99.90
5086;DHT22;4715;51.660;7.082;2023-04-03T07:37:21;5.20;99.90
5086;DHT22;4715;51.660;7.082;2023-04-03T07:39:43;5.20;99.90
5086;DHT22;4715;51.660;7.082;2023-04-03T07:42:06;5.30;99.90
5086;DHT22;4715;51.660;7.082;2023-04-03T07:44:28;5.40;99.90
5086;DHT22;4715;51.660;7.082;2023-04-03T07:46:50;5.50;99.90
5086;DHT22;4715;51.660;7.082;2023-04-03T07:49:12;5.60;99.90
5086;DHT22;4715;51.660;7.082;2023-04-03T07:51:35;5.70;99.90
5086;DHT22;4715;51.660;7.082;2023-04-03T07:53:58;5.80;99.90
5086;DHT22;4715;51.660;7.082;2023-04-03T07:56:20;5.90;99.90
5086;DHT22;4715;51.660;7.082;2023-04-03T07:58:43;5.90;99.90
5086;DHT22;4715;51.660;7.082;2023-04-03T08:01:05;6.00;99.90
5086;DHT22;4715;51.660;7.082;2023-04-03T08:03:27;6.00;99.90
5086;DHT22;4715;51.660;7.082;2023-04-03T08:05:50;6.10;99.90
5086;DHT22;4715;51.660;7.082;2023-04-03T08:08:15;6.10;99.90
5086;DHT22;4715;51.660;7.082;2023-04-03T08:10:41;6.20;99.90
5086;DHT22;4715;51.660;7.082;2023-04-03T08:13:04;6.30;99.90
5086;DHT22;4715;51.660;7.082;2023-04-03T08:15:26;6.30;99.90
5086;DHT22;4715;51.660;7.082;2023-04-03T08:17:48;6.30;99.90
5086;DHT22;4715;51.660;7.082;2023-04-03T08:20:11;6.40;99.90
5086;DHT22;4715;51.660;7.082;2023-04-03T08:22:33;6.40;99.90
5086;DHT22;4715;51.660;7.082;2023-04-03T08:24:55;6.50;99.90
5086;DHT22;4715;51.660;7.082;2023-04-03T08:27:18;6.60;99.90
5086;DHT22;4715;51.660;7.082;2023-04-03T08:29:40;6.70;99.90
5086;DHT22;4715;51.660;7.082;2023-04-03T08:32:02;6.80;99.90
5086;DHT22;4715;51.660;7.082;2023-04-03T08:34:24;6.80;99.90
5086;DHT22;4715;51.660;7.082;2023-04-03T08:36:47;6.90;99.90
5086;DHT22;4715;51.660;7.082;2023-04-03T08:39:08;6.90;99.90
5086;DHT22;4715;51.660;7.082;2023-04-03T08:41:33;7.00;99.90
5086;DHT22;4715;51.660;7.082;2023-04-03T08:44:05;7.10;99.90
5086;DHT22;4715;51.660;7.082;2023-04-03T08:46:42;7.30;99.90
5086;DHT22;4715;51.660;7.082;2023-04-03T08:49:13;7.30;99.90
5086;DHT22;4715;51.660;7.082;2023-04-03T08:51:40;7.40;99.90
5086;DHT22;4715;51.660;7.082;2023-04-03T08:54:21;7.40;99.90
5086;DHT22;4715;51.660;7.082;2023-04-03T08:56:45;7.50;99.90
5086;DHT22;4715;51.660;7.082;2023-04-03T08:59:13;7.60;99.90
5086;DHT22;4715;51.660;7.082;2023-04-03T09:01:39;7.60;99.90
5086;DHT22;4715;51.660;7.082;2023-04-03T09:04:02;7.60;99.90
5086;DHT22;4715;51.660;7.082;2023-04-03T09:06:25;7.70;99.90
5086;DHT22;4715;51.660;7.082;2023-04-03T09:08:53;7.80;99.90
5086;DHT22;4715;51.660;7.082;2023-04-03T09:11:22;7.90;99.90
5086;DHT22;4715;51.660;7.082;2023-04-03T09:13:50;7.90;99.90
5086;DHT22;4715;51.660;7.082;2023-04-03T09:16:21;8.00;99.90
5086;DHT22;4715;51.660;7.082;2023-04-03T09:18:53;8.00;99.90
5086;DHT22;4715;51.660;7.082;2023-04-03T09:21:22;8.00;99.90
5086;DHT22;4715;51.660;7.082;2023-04-03T09:23:49;8.10;99.90
5086;DHT22;4715;51.660;7.082;2023-04-03T09:26:16;8.20;99.90
5086;DHT22;4715;51.660;7.082;2023-04-03T09:28:40;8.30;99.90
5086;DHT22;4715;51.660;7.082;2023-04-03T09:31:16;8.30;99.90
5086;DHT22;4715;51.660;7.082;2023-04-03T09:33:40;8.40;99.90
5086;DHT22;4715;51.660;7.082;2023-04-03T09:36:03;8.50;99.90
5086;DHT22;4715;51.660;7.082;2023-04-03T09:38:25;8.60;99.90
5086;DHT22;4715;51.660;7.082;2023-04-03T09:40:48;8.60;99.90
5086;DHT22;4715;51.660;7.082;2023-04-03T09:43:27;8.70;99.90
5086;DHT22;4715;51.660;7.082;2023-04-03T09:45:50;8.70;99.90
5086;DHT22;4715;51.660;7.082;2023-04-03T09:48:16;8.90;99.90
5086;DHT22;4715;51.660;7.082;2023-04-03T09:50:57;8.90;99.90
5086;DHT22;4715;51.660;7.082;2023-04-03T09:53:27;9.10;99.90
5086;DHT22;4715;51.660;7.082;2023-04-03T09:55:49;9.10;99.90
5086;DHT22;4715;51.660;7.082;2023-04-03T09:58:25;9.20;99.90
5086;DHT22;4715;51.660;7.082;2023-04-03T10:00:54;9.30;99.90
5086;DHT22;4715;51.660;7.082;2023-04-03T10:03:24;9.40;99.90
5086;DHT22;4715;51.660;7.082;2023-04-03T10:05:48;9.50;99.90
5086;DHT22;4715;51.660;7.082;2023-04-03T10:08:20;9.50;99.90
5086;DHT22;4715;51.660;7.082;2023-04-03T10:10:46;9.40;99.90
5086;DHT22;4715;51.660;7.082;2023-04-03T10:13:12;9.40;99.90
5086;DHT22;4715;51.660;7.082;2023-04-03T10:15:39;9.40;99.90
5086;DHT22;4715;51.660;7.082;2023-04-03T10:18:04;9.40;99.90
5086;DHT22;4715;51.660;7.082;2023-04-03T10:20:33;9.50;99.90
5086;DHT22;4715;51.660;7.082;2023-04-03T10:23:14;9.60;99.90
5086;DHT22;4715;51.660;7.082;2023-04-03T10:25:40;9.70;99.90
5086;DHT22;4715;51.660;7.082;2023-04-03T10:28:05;9.80;99.90
5086;DHT22;4715;51.660;7.082;2023-04-03T10:30:36;9.80;99.90
5086;DHT22;4715;51.660;7.082;2023-04-03T10:33:18;9.70;99.90
5086;DHT22;4715;51.660;7.082;2023-04-03T10:35:49;9.60;99.90
5086;DHT22;4715;51.660;7.082;2023-04-03T10:38:22;9.50;99.90
5086;DHT22;4715;51.660;7.082;2023-04-03T10:40:52;9.60;99.90
5086;DHT22;4715;51.660;7.082;2023-04-03T10:43:21;9.70;99.90
5086;DHT22;4715;51.660;7.082;2023-04-03T10:45:53;9.80;99.90
5086;DHT22;4715;51.660;7.082;2023-04-03T10:48:29;9.80;99.90
5086;DHT22;4715;51.660;7.082;2023-04-03T10:50:57;9.70;99.90
5086;DHT22;4715;51.660;7.082;2023-04-03T10:53:26;9.80;99.90
5086;DHT22;4715;51.660;7.082;2023-04-03T10:55:57;9.80;99.90
5086;DHT22;4715;51.660;7.082;2023-04-03T10:58:28;9.90;99.90
5086;DHT22;4715;51.660;7.082;2023-04-03T11:00:53;10.10;99.90
5086;DHT22;4715;51.660;7.082;2023-04-03T11:03:21;10.20;99.50
5086;DHT22;4715;51.660;7.082;2023-04-03T11:05:48;10.30;99.40
5086;DHT22;4715;51.660;7.082;2023-04-03T11:08:19;10.40;99.60
5086;DHT22;4715;51.660;7.082;2023-04-03T11:10:49;10.50;99.50
5086;DHT22;4715;51.660;7.082;2023-04-03T11:13:14;10.60;98.50
5086;DHT22;4715;51.660;7.082;2023-04-03T11:15:37;10.50;96.70
5086;DHT22;4715;51.660;7.082;2023-04-03T11:18:02;10.40;96.90
5086;DHT22;4715;51.660;7.082;2023-04-03T11:20:28;10.40;96.60
5086;DHT22;4715;51.660;7.082;2023-04-03T11:22:58;10.30;96.90
5086;DHT22;4715;51.660;7.082;2023-04-03T11:25:23;10.20;96.60
5086;DHT22;4715;51.660;7.082;2023-04-03T11:27:49;10.20;97.00
5086;DHT22;4715;51.660;7.082;2023-04-03T11:30:17;10.30;96.80
5086;DHT22;4715;51.660;7.082;2023-04-03T11:32:52;10.40;97.10
5086;DHT22;4715;51.660;7.082;2023-04-03T11:35:17;10.40;96.80
5086;DHT22;4715;51.660;7.082;2023-04-03T11:37:43;10.50;96.80
5086;DHT22;4715;51.660;7.082;2023-04-03T11:40:13;10.60;96.80
5086;DHT22;4715;51.660;7.082;2023-04-03T11:42:40;10.70;97.00
5086;DHT22;4715;51.660;7.082;2023-04-03T11:45:27;10.90;96.50
5086;DHT22;4715;51.660;7.082;2023-04-03T11:47:52;10.80;95.40
5086;DHT22;4715;51.660;7.082;2023-04-03T11:53:32;10.70;94.90
5086;DHT22;4715;51.660;7.082;2023-04-03T11:59:23;10.70;94.60
5086;DHT22;4715;51.660;7.082;2023-04-03T12:01:47;10.80;95.20
5086;DHT22;4715;51.660;7.082;2023-04-03T12:04:12;10.90;95.40
5086;DHT22;4715;51.660;7.082;2023-04-03T12:09:57;11.00;94.00
5086;DHT22;4715;51.660;7.082;2023-04-03T12:12:31;11.00;93.90
5086;DHT22;4715;51.660;7.082;2023-04-03T12:14:55;11.00;94.40
5086;DHT22;4715;51.660;7.082;2023-04-03T12:17:22;11.10;94.60
5086;DHT22;4715;51.660;7.082;2023-04-03T12:19:46;11.20;94.80
5086;DHT22;4715;51.660;7.082;2023-04-03T12:22:13;11.40;94.30
5086;DHT22;4715;51.660;7.082;2023-04-03T12:24:37;11.50;94.40
5086;DHT22;4715;51.660;7.082;2023-04-03T12:30:00;11.60;93.70
5086;DHT22;4715;51.660;7.082;2023-04-03T12:32:40;11.50;93.10
5086;DHT22;4715;51.660;7.082;2023-04-03T12:35:15;11.50;93.40
5086;DHT22;4715;51.660;7.082;2023-04-03T12:40:57;11.70;93.80
5086;DHT22;4715;51.660;7.082;2023-04-03T12:46:15;11.90;93.50
5086;DHT22;4715;51.660;7.082;2023-04-03T12:48:47;12.10;93.50
5086;DHT22;4715;51.660;7.082;2023-04-03T12:51:13;12.20;93.30
5086;DHT22;4715;51.660;7.082;2023-04-03T12:53:37;12.20;93.30
5086;DHT22;4715;51.660;7.082;2023-04-03T12:56:22;12.30;93.20
5086;DHT22;4715;51.660;7.082;2023-04-03T12:58:44;12.40;92.20
5086;DHT22;4715;51.660;7.082;2023-04-03T13:01:13;12.30;91.80
5086;DHT22;4715;51.660;7.082;2023-04-03T13:03:38;12.20;92.00
5086;DHT22;4715;51.660;7.082;2023-04-03T13:06:02;12.20;92.20
5086;DHT22;4715;51.660;7.082;2023-04-03T13:08:25;12.20;92.20
5086;DHT22;4715;51.660;7.082;2023-04-03T13:10:52;12.30;92.10
5086;DHT22;4715;51.660;7.082;2023-04-03T13:13:16;12.30;92.30
5086;DHT22;4715;51.660;7.082;2023-04-03T13:15:44;12.30;92.50
5086;DHT22;4715;51.660;7.082;2023-04-03T13:18:32;12.40;92.40
5086;DHT22;4715;51.660;7.082;2023-04-03T13:21:01;12.40;92.50
5086;DHT22;4715;51.660;7.082;2023-04-03T13:23:24;12.50;92.10
5086;DHT22;4715;51.660;7.082;2023-04-03T13:25:47;12.40;91.50
5086;DHT22;4715;51.660;7.082;2023-04-03T13:28:12;12.40;92.30
5086;DHT22;4715;51.660;7.082;2023-04-03T13:30:37;12.50;92.20
5086;DHT22;4715;51.660;7.082;2023-04-03T13:33:03;12.60;91.60
5086;DHT22;4715;51.660;7.082;2023-04-03T13:35:34;12.60;91.20
5086;DHT22;4715;51.660;7.082;2023-04-03T13:37:58;12.50;90.80
5086;DHT22;4715;51.660;7.082;2023-04-03T13:40:20;12.40;90.90
5086;DHT22;4715;51.660;7.082;2023-04-03T13:42:42;12.30;90.30
5086;DHT22;4715;51.660;7.082;2023-04-03T13:45:25;12.20;90.50
5086;DHT22;4715;51.660;7.082;2023-04-03T13:47:51;12.20;90.90
5086;DHT22;4715;51.660;7.082;2023-04-03T13:50:16;12.50;91.40
5086;DHT22;4715;51.660;7.082;2023-04-03T13:52:42;12.70;90.30
5086;DHT22;4715;51.660;7.082;2023-04-03T13:55:18;12.70;89.00
5086;DHT22;4715;51.660;7.082;2023-04-03T13:57:49;12.60;87.70
5086;DHT22;4715;51.660;7.082;2023-04-03T14:00:31;12.60;88.70
5086;DHT22;4715;51.660;7.082;2023-04-03T14:02:56;12.90;89.80
5086;DHT22;4715;51.660;7.082;2023-04-03T14:05:18;13.20;89.80
5086;DHT22;4715;51.660;7.082;2023-04-03T14:07:43;13.40;88.30
5086;DHT22;4715;51.660;7.082;2023-04-03T14:10:05;13.60;89.40
5086;DHT22;4715;51.660;7.082;2023-04-03T14:12:33;14.00;90.00
5086;DHT22;4715;51.660;7.082;2023-04-03T14:14:55;14.30;87.80
5086;DHT22;4715;51.660;7.082;2023-04-03T14:17:19;14.30;87.40
5086;DHT22;4715;51.660;7.082;2023-04-03T14:19:41;14.40;86.90
5086;DHT22;4715;51.660;7.082;2023-04-03T14:22:12;14.40;85.60
5086;DHT22;4715;51.660;7.082;2023-04-03T14:24:36;14.50;87.00
5086;DHT22;4715;51.660;7.082;2023-04-03T14:27:16;15.10;87.50
5086;DHT22;4715;51.660;7.082;2023-04-03T14:29:38;15.40;84.20
5086;DHT22;4715;51.660;7.082;2023-04-03T14:32:00;15.20;82.20
5086;DHT22;4715;51.660;7.082;2023-04-03T14:34:22;15.10;82.10
5086;DHT22;4715;51.660;7.082;2023-04-03T14:36:45;15.00;81.30
5086;DHT22;4715;51.660;7.082;2023-04-03T14:39:10;14.90;80.80
5086;DHT22;4715;51.660;7.082;2023-04-03T14:41:35;14.90;81.00
5086;DHT22;4715;51.660;7.082;2023-04-03T14:43:56;15.10;81.20
5086;DHT22;4715;51.660;7.082;2023-04-03T14:46:21;15.40;80.50
5086;DHT22;4715;51.660;7.082;2023-04-03T14:48:44;15.50;78.90
5086;DHT22;4715;51.660;7.082;2023-04-03T14:51:06;15.50;78.60
5086;DHT22;4715;51.660;7.082;2023-04-03T14:53:28;15.50;77.60
5086;DHT22;4715;51.660;7.082;2023-04-03T14:55:53;15.50;77.70
5086;DHT22;4715;51.660;7.082;2023-04-03T14:58:19;15.50;77.10
5086;DHT22;4715;51.660;7.082;2023-04-03T15:00:42;15.40;77.40
5086;DHT22;4715;51.660;7.082;2023-04-03T15:03:03;15.50;77.80
5086;DHT22;4715;51.660;7.082;2023-04-03T15:05:25;15.70;78.10
5086;DHT22;4715;51.660;7.082;2023-04-03T15:07:50;15.70;77.00
5086;DHT22;4715;51.660;7.082;2023-04-03T15:10:17;15.60;75.60
5086;DHT22;4715;51.660;7.082;2023-04-03T15:12:40;15.50;77.00
5086;DHT22;4715;51.660;7.082;2023-04-03T15:15:04;15.40;76.20
5086;DHT22;4715;51.660;7.082;2023-04-03T15:17:32;15.20;75.50
5086;DHT22;4715;51.660;7.082;2023-04-03T15:19:54;14.70;74.80
5086;DHT22;4715;51.660;7.082;2023-04-03T15:22:19;14.40;75.70
5086;DHT22;4715;51.660;7.082;2023-04-03T15:24:42;14.30;76.40
5086;DHT22;4715;51.660;7.082;2023-04-03T15:27:05;14.30;77.10
5086;DHT22;4715;51.660;7.082;2023-04-03T15:29:28;14.50;77.50
5086;DHT22;4715;51.660;7.082;2023-04-03T15:31:52;14.60;76.90
5086;DHT22;4715;51.660;7.082;2023-04-03T15:34:14;14.60;76.70
5086;DHT22;4715;51.660;7.082;2023-04-03T15:36:45;14.40;76.30
5086;DHT22;4715;51.660;7.082;2023-04-03T15:39:09;14.20;76.00
5086;DHT22;4715;51.660;7.082;2023-04-03T15:41:30;14.10;76.40
5086;DHT22;4715;51.660;7.082;2023-04-03T15:43:52;14.00;75.70
5086;DHT22;4715;51.660;7.082;2023-04-03T15:46:14;13.90;76.00
5086;DHT22;4715;51.660;7.082;2023-04-03T15:48:37;14.00;76.60
5086;DHT22;4715;51.660;7.082;2023-04-03T15:51:00;14.40;77.70
5086;DHT22;4715;51.660;7.082;2023-04-03T15:53:22;15.20;78.50
5086;DHT22;4715;51.660;7.082;2023-04-03T15:55:44;16.10;77.20
5086;DHT22;4715;51.660;7.082;2023-04-03T15:58:06;16.60;74.90
5086;DHT22;4715;51.660;7.082;2023-04-03T16:00:28;16.80;74.70
5086;DHT22;4715;51.660;7.082;2023-04-03T16:02:54;17.00;73.60
5086;DHT22;4715;51.660;7.082;2023-04-03T16:05:19;17.00;73.20
5086;DHT22;4715;51.660;7.082;2023-04-03T16:07:44;16.80;72.60
5086;DHT22;4715;51.660;7.082;2023-04-03T16:10:09;16.30;72.60
5086;DHT22;4715;51.660;7.082;2023-04-03T16:12:31;15.80;72.90
5086;DHT22;4715;51.660;7.082;2023-04-03T16:14:53;15.60;73.30
5086;DHT22;4715;51.660;7.082;2023-04-03T16:17:14;15.90;74.60
5086;DHT22;4715;51.660;7.082;2023-04-03T16:19:36;16.30;74.60